Naples, Italy

8:16 PM CET on February 22, 2017 (GMT +0100)
Calata San Marco | | Change Station

Elev 0 ft 40.84 °N, 14.25 °E | Updated 4 minutes ago

Mostly Cloudy
Mostly Cloudy
60.1 °F
Feels Like 60.1 °F
N
1.9
Wind Variable Wind from South
Gusts 6.8 mph

Today
High -- | Low -- °F
--% Chance of Precip.
Yesterday
High -- | Low -- °F
Precip. -- in
Pressure 30.12 in
Visibility 6.2 miles
Clouds Few 2500 ft
Mostly Cloudy 6000 ft
Dew Point 48 °F
Humidity 65%
Rainfall Not available.
Snow Depth Not available.
6:47 AM 5:45 PM
Waning Crescent, 15% visible
METAR LIRM 221855Z 00000KT 9999 FEW025 BKN060 10/10 Q1020
Pressure 30.12 in
Visibility 6.2 miles
Clouds Few 2500 ft
Mostly Cloudy 6000 ft
Dew Point 48 °F
Humidity 65%
Rainfall Not available.
Snow Depth Not available.
6:47 AM 5:45 PM
Waning Crescent, 15% visible
METAR LIRM 221855Z 00000KT 9999 FEW025 BKN060 10/10 Q1020

Get Your Daily Forecast Email!

Thanks for signing up!

Be on the lookout for a verification email in your inbox.

You'll start receiving the daily forecast at 8 AM.

×

10-Day Weather Forecast

×

Almanac

Astronomy

Feb. 22, 2017 Rise Set
Actual Time
Civil Twilight
Nautical Twilight
Astronomical Twilight
Moon
Length of Visible Light
Length of Day
Tomorrow will be .
, % of the Moon is Illuminated

Today's Extremes

Country Highs Country Lows

Community

WunderPhotos

Upload Photos

1,962,540 photos uploaded!

WunderBlog® & News

Nearby

Air Quality

  Air Quality AQ Index Pollutant
Not available.

Snow Depth

Station Depth Elevation

Earthquake Activity

City Distance Mag. Time & Date
Minimum magnitude displayed is 2.5.

Coastal Water Temperatures

Place Temperature

Stations

Nearby Weather Stations

Station Location Temp. Windchill Dew Point Humidity Wind Precip. Elev Updated Type